KCRE/CRE METAR and TAF weather

Enter ICAO airport designator
Station Type Date Time Source
KCRE METAR 2019/10/16 19:53 UTC NOAA

KCRE 161953Z 28008G17KT 10SM FEW024 27/20 A2962 RMK AO1 SLP030 T02670200


Station Type Date Time Source
KCRE Decoded METAR 2019/10/16 19:53 UTC NOAA

N. MYRTLE BCH.GRAND STRAND, SC, United States (KCRE) 33-49N 078-43W 10M
Oct 16, 2019 - 03:53 PM EDT / 2019.10.16 1953 UTC
Wind: from the W (280 degrees) at 9 MPH (8 KT) gusting to 20 MPH (17 KT):0
Visibility: 10 mile(s):0
Sky conditions: mostly clear
Temperature: 80.1 F (26.7 C)
Dew Point: 68.0 F (20.0 C)
Relative Humidity: 66%
Pressure (altimeter): 29.62 in. Hg (1003 hPa)
ob: KCRE 161953Z 28008G17KT 10SM FEW024 27/20 A2962 RMK AO1 SLP030 T02670200
cycle: 20

Station Type Date Time Source
KCRE TAF 2019/10/16 18:24 UTC NOAA

TAF KCRE 161721Z 1618/1718 25013G22KT P6SM BKN020
FM162000 25013G20KT P6SM BKN035
TEMPO 1620/1621 BKN025
FM162100 28012G19KT P6SM SCT050
FM170000 31009KT P6SM SKC
FM171400 32010G17KT P6SM SKC

Example: see airport list